Baudette, MN

07:27 CDT le 02 octobre 2014 (GMT -0500)
Baudette International | Change Station
CLOSE
Current Station
Aéroport
Location: Baudette,
Altitude: 1083 ft
Stations météo à proximité

Alt. 1083 ft 48.73 °N, 94.61 °W | Updated 34 minutes ago

Partiellement nuageux
Partiellement nuageux
46 ° F
Paraît 45 ° F
N
4
Vent Variable Vent de SO

Aujourd'hui
Haut(e) -- | Bas -- ° F
--% Risque de précip.
Hier
Haut(e) -- | Bas -- ° F
Precip. -- pouce
7:20 AM 6:56 PM
Premier quartier, 58% visible
Pression 29.80 pouce
Visibilité 10.0 Miles terrestres
Nuages Ciel dégagé
Refroidissement éolien 45 ° F
Point de rosée 45 ° F
Humidité 96%
Précipitations 0.00 pouce
Profondeur de la couche neigeuse Non disponible.
UV 0 sur 12
Pollen 1.10 sur 12
Qualité de l'air Non disponible.
Flu Activity Non disponible.
METAR KBDE 021153Z AUTO 23003KT 10SM CLR 08/07 A2978 RMK AO2 SLP091 70002 T00780072 10122 20078 53008 TSNO

More Conditions Fewer Conditions

Pression 29.80 pouce
Visibilité 10.0 Miles terrestres
Nuages Ciel dégagé
Refroidissement éolien 45 ° F
Point de rosée 45 ° F
Humidité 96%
Précipitations 0.00 pouce
Profondeur de la couche neigeuse Non disponible.
UV 0 sur 12
Pollen 1.10 sur 12
Qualité de l'air Non disponible.
Flu Activity Non disponible.
METAR KBDE 021153Z AUTO 23003KT 10SM CLR 08/07 A2978 RMK AO2 SLP091 70002 T00780072 10122 20078 53008 TSNO

More Conditions Fewer Conditions

10-Day Weather Forecast

Almanac

Astronomie

Oct. 02, 2014 Lever Coucher
Temps réel 07:20 CDT 18:56 CDT
Crépuscule civil 06:48 CDT 19:27 CDT
Crépuscule nautique 06:12 CDT 20:03 CDT
Crépuscule astronomique 05:35 CDT 20:40 CDT
Lune 15:28 CDT 00:10 CDT
Durée de lumière visible 12h 38m
Longueur du jour
11h 35m
Tomorrow will be 3m 32s shorter.
Premier quartier, 58% of the Moon is Illuminated
Aujourd'hui
Premier quartier
Oct 8
Pleine lune
Oct 15
Dernier quartier
Oct 23
Nouveau
Oct 30
Premier quartier

Extrêmes aujourd'hui

State Highs State Lows

Community

WunderPhotos

Upload Photos

1,758,223 Photos téléchargées !

WunderBlogs® & News

Nearby

Épaisseur de neige

Station Depth Altitude
Pas de nouvelles chutes de neige

Activité sismique

Ville Distance Mag. Time & Date
No recent earthquake activity has been reported nearby.
Minimum magnitude displayed is 2.5.

Températures des eaux côtières

Lieu Température
Aucun rapport de station

Stations météo à proximité